Baltimore, MD

7:40 AM EST on February 19, 2017 (GMT -0500)
Old Goucher | | Change Station
Active Advisory: Small Craft Advisory

Elev 154 ft 39.32 °N, 76.61 °W | Updated 23 seconds ago

Overcast
Overcast
59.4 °F
Feels Like 59.4 °F
N
1.0
Wind Variable Wind from South

Today
High -- | Low -- °F
--% Chance of Precip.
Yesterday
High -- | Low -- °F
Precip. -- in
Pressure 29.83 in
Visibility 10.0 miles
Clouds Few 8000 ft
Mostly Cloudy 9500 ft
Overcast 25000 ft
Dew Point 43 °F
Humidity 55%
Rainfall 0.00 in
Snow Depth Not available.
6:52 AM 5:48 PM
Last Quarter, 43% visible
METAR KBWI 191154Z 26006KT 10SM -RA FEW080 BKN095 OVC250 13/06 A2983 RMK AO2 RAB08E36B53 SLP102 P0000 60000 T01330056 10150 20122 52017
Pressure 29.83 in
Visibility 10.0 miles
Clouds Few 8000 ft
Mostly Cloudy 9500 ft
Overcast 25000 ft
Dew Point 43 °F
Humidity 55%
Rainfall 0.00 in
Snow Depth Not available.
6:52 AM 5:48 PM
Last Quarter, 43% visible
METAR KBWI 191154Z 26006KT 10SM -RA FEW080 BKN095 OVC250 13/06 A2983 RMK AO2 RAB08E36B53 SLP102 P0000 60000 T01330056 10150 20122 52017

Get Your Daily Forecast Email!

Thanks for signing up!

Be on the lookout for a verification email in your inbox.

You'll start receiving the daily forecast at 8 AM.

×

10-Day Weather Forecast

Almanac

Astronomy

Feb. 19, 2017 Rise Set
Actual Time
Civil Twilight
Nautical Twilight
Astronomical Twilight
Moon
Length of Visible Light
Length of Day
Tomorrow will be .
, % of the Moon is Illuminated

Today's Extremes

State Highs State Lows

Community

WunderPhotos

Upload Photos

1,962,540 photos uploaded!

WunderBlog® & News

Nearby

Air Quality

  Air Quality AQ Index Pollutant
Not available.

Snow Depth

Station Depth Elevation

Earthquake Activity

City Distance Mag. Time & Date
Minimum magnitude displayed is 2.5.

Coastal Water Temperatures

Place Temperature

Stations

Nearby Weather Stations

Station Location Temp. Windchill Dew Point Humidity Wind Precip. Elev Updated Type
                   

Watches & Warnings

Small Craft Advisory
Issued: 6:50 AM EST Feb. 19, 2017 – National Weather Service

... Small Craft Advisory remains in effect from 10 am this morning
to 6 PM EST this evening...

* winds... 18 to 33 knots within the Small Craft Advisory.

Precautionary/preparedness actions...

A Small Craft Advisory means winds of 18 to 33 knots are imminent
or occurring. Boaters operating smaller vessels should avoid
navigating in these conditions.